x

Molasses Reef, Fl (mlrf1) Weather Station

4:00am - Thu 30th Jul 2015 All times are EDT. -4 hours from GMT.

  • Wind
    5mph
  • Sea Temp 87°f
  • Air Temp 85°f
  • Sea Pressure 1015.7mb
  • Molasses Reef, Fl
  • Molasses Reef, Fl

More Historic Weather Station data

Upgrade to MSW Pro to gain access to the past 30 days of data for over 8000 Wavebouys and Weather Stations around the globe.

Join Pro

Comparision Forecast

View Surf forecast
   
Thu 07/30 4:00am 5
mph
1015.7mb 87f 85f
3:00am 5 6 mph 1015.9mb 87f 85f
2:00am 6 7 mph 1016.3mb 87f 86f
1:00am 6 7 mph 1016.7mb 87f 86f
12:00am 8
mph
1016.9mb 87f 86f
Wed 07/29 11:00pm 10 13 mph 1016.6mb 87f 86f
10:00pm 11 13 mph 1016.3mb 87f 86f
9:00pm 11 14 mph 1015.8mb 87f 86f
8:00pm 11 14 mph 1015.5mb 87f 86f
7:00pm 9 10 mph 1015.4mb 87f 86f
6:00pm 8 9 mph 1015.5mb 87f 86f
5:00pm 9 10 mph 1016mb 88f 86f
4:00pm 8 9 mph 1016.5mb 88f 86f
3:00pm 6
mph
1016.7mb 87f 86f
2:00pm 6 7 mph 1017mb 87f 86f
1:00pm 5
mph
1017.2mb 87f 85f
11:00am  -  mph 1017.1mb 87f 86f
10:00am 3 5 mph 1017.1mb 87f 85f
9:00am  -  1 mph 1016.5mb 86f 84f
8:00am  -  1 mph 1016.4mb 86f 85f
7:00am 3
mph
1016.2mb 87f 84f
6:00am 3 5 mph 1015.7mb 87f 84f
5:00am 2
mph
1015.3mb 87f 84f
4:00am 3
mph
1015.5mb 87f 85f
3:00am 3 5 mph 1015.4mb 87f 85f
2:00am 1 2 mph 1016.1mb 87f 85f
1:00am 3
mph
1016.6mb 87f 85f
12:00am 5 6 mph 1016.7mb 87f 86f
Tue 07/28 11:00pm 8 9 mph 1016.7mb 87f 86f
10:00pm 8
mph
1016.6mb 87f 86f
9:00pm 9
mph
1016.3mb 87f 86f
8:00pm 8 9 mph 1015.9mb 88f 86f
7:00pm 8 10 mph 1015.4mb 88f 86f
6:00pm 9 10 mph 1015.5mb 88f 86f
5:00pm 8
mph
1015.7mb 88f 86f
4:00pm 9 10 mph 1015.9mb 88f 85f
3:00pm 6 7 mph 1016.4mb 88f 85f
2:00pm 2 3 mph 1016.7mb 88f 85f
1:00pm 2 3 mph 1017mb 88f 85f
12:00pm  -  1 mph 1017.5mb 87f 86f
11:00am 5 6 mph 1017.7mb 87f 85f
10:00am 3 5 mph 1017.5mb 87f 85f
9:00am 5 6 mph 1017.2mb 87f 84f
8:00am 6 7 mph 1016.6mb 87f 84f
7:00am 6
mph
1016.1mb 87f 84f
6:00am 9 10 mph 1015.4mb 87f 84f
5:00am 11 14 mph 1015.1mb 87f 84f
4:00am 14 15 mph 1015.5mb 87f 84f
3:00am 9
mph
1015.9mb 87f 84f
2:00am 6 7 mph 1016mb 87f 85f
1:00am 2
mph
1016.3mb 87f 85f
12:00am 1 2 mph 1016.7mb 87f 85f
Mon 07/27 11:00pm 1 2 mph 1016.9mb 87f 85f
10:00pm 3 6 mph 1016.7mb 87f 85f
9:00pm 6 7 mph 1016.5mb 87f 86f
8:00pm 8
mph
1016.1mb 88f 86f
7:00pm 9 10 mph 1015.7mb 88f 86f
6:00pm 10 11 mph 1015.5mb 88f 86f
5:00pm 10 13 mph 1015.6mb 88f 86f
4:00pm 10 11 mph 1015.7mb 87f 85f
3:00pm 11 13 mph 1016mb 87f 86f
2:00pm 10 11 mph 1016.6mb 87f 86f
1:00pm 13 14 mph 1016.8mb 87f 86f
12:00pm 13 14 mph 1016.9mb 87f 85f
11:00am 14 16 mph 1016.8mb 87f 85f
10:00am 15 16 mph 1016.3mb 87f 85f
9:00am 14 16 mph 1015.6mb 87f 85f
8:00am 17 20 mph 1015.1mb 86f 85f
7:00am 18 20 mph 1014.8mb 87f 84f
6:00am 14 16 mph 1014.5mb 87f 84f
5:00am 11 14 mph 1014.4mb 87f 84f
4:00am 10 11 mph 1014.5mb 87f 84f
3:00am 13 14 mph 1015.1mb 87f 84f
2:00am 10 13 mph 1015.5mb 86f 84f
1:00am 13 15 mph 1016mb 87f 84f
12:00am 8 9 mph 1016mb 87f 84f
Sun 07/26 11:00pm 8 9 mph 1015.8mb 87f 84f
10:00pm 6 7 mph 1015.4mb 87f 83f
9:00pm 8 10 mph 1015.1mb 87f 82f
8:00pm 8 9 mph 1014.4mb 87f 82f
7:00pm 8 10 mph 1014.6mb 87f 81f
6:00pm 10 11 mph 1014.7mb 87f 81f
5:00pm 6 7 mph 1014.5mb 87f 81f
4:00pm 20 22 mph 1015.3mb 87f 79f
3:00pm 21 22 mph 1015.4mb 87f 80f
2:00pm 21 22 mph 1015.1mb 87f 85f
1:00pm 21 22 mph 1015mb 87f 85f
12:00pm 21 22 mph 1014.9mb 87f 85f
11:00am 21 22 mph 1014.7mb 87f 83f
10:00am 18 20 mph 1014.3mb 87f 85f